Time;durP1;ratioP1;P1;durP2;ratioP2;P2;SDS_P1;SDS_P2;PMS_P1;PMS_P2;Temp;Humidity;BMP_temperature;BMP_pressure;BME280_temperature;BME280_humidity;BME280_pressure;Samples;Min_cycle;Max_cycle;Signal;HPM_P1;HPM_P2
2021/07/08 00:00:39;;;;;;;9.27;7.22;;;23.70;79.70;;;;;;4917346;29;20020;-70
2021/07/08 00:03:05;;;;;;;12.45;7.25;;;23.70;79.80;;;;;;4917263;29;20088;-70
2021/07/08 00:05:35;;;;;;;9.00;6.70;;;23.70;79.80;;;;;;4917195;29;20111;-70
2021/07/08 00:08:01;;;;;;;12.40;7.57;;;23.60;79.90;;;;;;4917290;29;20036;-71
2021/07/08 00:10:31;;;;;;;9.40;7.65;;;23.60;80.00;;;;;;4917347;29;20039;-71
2021/07/08 00:12:58;;;;;;;11.45;7.22;;;23.60;80.10;;;;;;4917026;29;20390;-71
2021/07/08 00:15:24;;;;;;;10.68;8.27;;;23.60;80.30;;;;;;4917129;29;20024;-71
2021/07/08 00:17:50;;;;;;;9.90;7.25;;;23.60;80.40;;;;;;4917001;29;20024;-71
2021/07/08 00:20:20;;;;;;;11.43;8.13;;;23.60;80.50;;;;;;4917102;29;20035;-72
2021/07/08 00:22:46;;;;;;;16.02;7.50;;;23.50;80.70;;;;;;4916816;29;20024;-71
2021/07/08 00:25:15;;;;;;;11.30;7.28;;;23.50;80.80;;;;;;4916738;29;20031;-71
2021/07/08 00:27:41;;;;;;;9.15;7.20;;;23.50;81.00;;;;;;4925687;29;20016;-71
2021/07/08 00:30:08;;;;;;;12.75;7.82;;;23.50;81.10;;;;;;4925112;29;20091;-71
2021/07/08 00:32:35;;;;;;;9.98;7.75;;;23.50;81.30;;;;;;4923901;29;20032;-71
2021/07/08 00:35:01;;;;;;;11.48;7.53;;;23.40;81.30;;;;;;4925381;29;20031;-71
2021/07/08 00:37:26;;;;;;;11.50;7.75;;;23.40;81.60;;;;;;4924881;29;20020;-71
2021/07/08 00:39:52;;;;;;;8.40;7.15;;;23.50;81.90;;;;;;4906559;29;20039;-71
2021/07/08 00:42:18;;;;;;;14.57;8.93;;;23.40;82.00;;;;;;4925914;29;20078;-71
2021/07/08 00:44:45;;;;;;;9.68;7.47;;;23.30;82.20;;;;;;4924590;29;20035;-71
2021/07/08 00:47:11;;;;;;;10.43;7.55;;;23.30;82.40;;;;;;4924022;29;20378;-70
2021/07/08 00:49:37;;;;;;;12.13;7.93;;;23.30;82.50;;;;;;4908649;29;20032;-71
2021/07/08 00:52:03;;;;;;;14.18;8.32;;;23.30;83.30;;;;;;4924262;29;20024;-70
2021/07/08 00:54:29;;;;;;;12.05;7.32;;;23.30;83.50;;;;;;4924381;29;20055;-70
2021/07/08 00:56:55;;;;;;;10.90;7.88;;;23.20;83.10;;;;;;4925013;29;20028;-71
2021/07/08 00:59:20;;;;;;;11.98;7.57;;;23.20;83.20;;;;;;4924959;29;20466;-71
2021/07/08 01:01:47;;;;;;;16.08;8.48;;;23.20;83.40;;;;;;4937985;29;20032;-71
2021/07/08 01:04:14;;;;;;;11.43;7.68;;;23.20;83.50;;;;;;4925338;29;20374;-70
2021/07/08 01:06:44;;;;;;;11.13;8.00;;;23.20;83.80;;;;;;4924673;29;20095;-71
2021/07/08 01:09:11;;;;;;;12.02;8.00;;;23.20;83.90;;;;;;4923423;29;20103;-72
2021/07/08 01:11:38;;;;;;;13.05;8.55;;;23.10;83.90;;;;;;4924430;29;20020;-72
2021/07/08 01:14:05;;;;;;;12.30;8.10;;;23.10;84.00;;;;;;4925026;29;20028;-72
2021/07/08 01:16:31;;;;;;;12.50;7.95;;;23.10;84.10;;;;;;4923169;29;20024;-71
2021/07/08 01:18:56;;;;;;;14.65;8.25;;;23.10;84.20;;;;;;4924269;29;20022;-71
2021/07/08 01:21:28;;;;;;;10.52;8.90;;;23.10;84.80;;;;;;4907669;29;20043;-71
2021/07/08 01:23:56;;;;;;;11.45;7.85;;;23.10;84.30;;;;;;4923579;29;20068;-71
2021/07/08 01:26:22;;;;;;;10.27;8.00;;;23.10;84.30;;;;;;4923749;29;20039;-71
2021/07/08 01:28:52;;;;;;;11.57;8.32;;;23.10;84.40;;;;;;4924896;29;20024;-71
2021/07/08 01:31:19;;;;;;;12.15;8.20;;;23.00;84.40;;;;;;4924211;29;20024;-71
2021/07/08 01:33:46;;;;;;;11.50;8.40;;;23.00;84.50;;;;;;4923374;29;20130;-76
2021/07/08 01:36:13;;;;;;;13.63;10.38;;;23.00;84.50;;;;;;4925114;29;20024;-73
2021/07/08 01:38:39;;;;;;;10.90;8.55;;;23.00;84.70;;;;;;4924022;29;20100;-74
2021/07/08 01:41:05;;;;;;;10.00;7.72;;;23.00;84.80;;;;;;4906081;29;20050;-74
2021/07/08 01:43:37;;;;;;;11.13;8.23;;;23.00;84.80;;;;;;4924731;29;20020;-74
2021/07/08 01:46:08;;;;;;;13.23;8.13;;;23.00;85.60;;;;;;4907180;29;20028;-74
2021/07/08 01:48:34;;;;;;;10.35;8.27;;;22.90;84.90;;;;;;4924519;29;20472;-74
2021/07/08 01:51:04;;;;;;;11.85;8.13;;;22.90;85.00;;;;;;4926628;29;20021;-74
2021/07/08 01:53:30;;;;;;;9.25;8.15;;;22.90;85.10;;;;;;4926617;29;20024;-75
2021/07/08 01:55:58;;;;;;;10.38;8.40;;;22.90;85.20;;;;;;4927976;29;20067;-74
2021/07/08 01:58:25;;;;;;;12.60;8.32;;;22.90;85.30;;;;;;4911358;29;20024;-74
2021/07/08 02:00:51;;;;;;;17.70;8.50;;;22.90;85.50;;;;;;4932387;29;20106;-74
2021/07/08 02:03:17;;;;;;;15.43;8.55;;;22.90;85.50;;;;;;4938372;29;20056;-74
2021/07/08 02:05:43;;;;;;;13.35;7.80;;;22.90;85.50;;;;;;4938324;29;20493;-74
2021/07/08 02:08:09;;;;;;;12.15;8.90;;;23.00;85.60;;;;;;4921210;29;20525;-74
2021/07/08 02:10:35;;;;;;;10.85;8.60;;;23.00;85.50;;;;;;4938296;29;20027;-74
2021/07/08 02:13:01;;;;;;;8.75;7.90;;;23.00;85.40;;;;;;4938390;29;20067;-74
2021/07/08 02:15:26;;;;;;;11.82;8.25;;;23.00;85.40;;;;;;4938162;29;20027;-74
2021/07/08 02:17:52;;;;;;;8.93;7.35;;;23.20;85.40;;;;;;4952860;29;20082;-73
2021/07/08 02:20:19;;;;;;;9.90;7.93;;;23.30;85.00;;;;;;4938522;29;20059;-74
2021/07/08 02:22:45;;;;;;;10.20;8.13;;;23.60;84.20;;;;;;4921248;29;20872;-73
2021/07/08 02:25:13;;;;;;;9.55;7.78;;;23.80;83.20;;;;;;4938194;29;20063;-73
2021/07/08 02:27:40;;;;;;;11.52;7.57;;;24.10;82.00;;;;;;4938366;29;20102;-73
2021/07/08 02:30:08;;;;;;;11.77;6.90;;;24.40;81.00;;;;;;4938092;29;20823;-74
2021/07/08 02:32:34;;;;;;;11.40;6.97;;;24.80;79.80;;;;;;4920929;29;20028;-74
2021/07/08 02:35:00;;;;;;;7.85;6.72;;;25.10;78.70;;;;;;4938132;29;20035;-73
2021/07/08 02:37:25;;;;;;;10.63;6.70;;;25.30;77.50;;;;;;4952537;29;20470;-74
2021/07/08 02:39:51;;;;;;;9.50;6.72;;;25.60;76.40;;;;;;4937913;29;20039;-74
2021/07/08 02:42:17;;;;;;;11.68;6.70;;;25.90;75.30;;;;;;4937708;29;20066;-73
2021/07/08 02:44:42;;;;;;;10.98;6.38;;;26.10;74.10;;;;;;4937543;29;20087;-74
2021/07/08 02:47:08;;;;;;;10.18;6.25;;;26.50;73.30;;;;;;4937651;29;20083;-74
2021/07/08 02:49:34;;;;;;;11.20;6.55;;;26.90;72.30;;;;;;4937634;29;20042;-74
2021/07/08 02:51:59;;;;;;;10.00;6.20;;;27.40;71.30;;;;;;4937601;29;20092;-74
2021/07/08 02:54:25;;;;;;;7.70;6.10;;;27.90;70.00;;;;;;4937293;29;20446;-73
2021/07/08 02:56:51;;;;;;;9.48;5.50;;;28.50;68.70;;;;;;4937340;29;20031;-73
2021/07/08 02:59:17;;;;;;;7.97;5.68;;;28.90;67.20;;;;;;4937363;29;20267;-73
2021/07/08 03:01:42;;;;;;;8.55;5.45;;;29.40;65.90;;;;;;4919577;29;20462;-73
2021/07/08 03:04:08;;;;;;;9.15;5.68;;;29.60;64.50;;;;;;4937375;29;20020;-73
2021/07/08 03:06:34;;;;;;;7.60;5.47;;;29.90;63.60;;;;;;4937126;29;20058;-74
2021/07/08 03:09:00;;;;;;;13.95;5.60;;;30.20;62.90;;;;;;4937235;29;20055;-74
2021/07/08 03:11:26;;;;;;;6.53;5.35;;;30.50;61.70;;;;;;4937062;29;20032;-75
2021/07/08 03:13:52;;;;;;;11.07;5.20;;;30.80;61.00;;;;;;4937310;29;20023;-74
2021/07/08 03:16:17;;;;;;;7.38;5.40;;;31.10;59.80;;;;;;4951781;29;20036;-74
2021/07/08 03:18:43;;;;;;;9.07;5.50;;;31.30;59.10;;;;;;4937094;29;20107;-75
2021/07/08 03:21:09;;;;;;;11.32;5.72;;;31.50;58.70;;;;;;4936966;29;20032;-74
2021/07/08 03:23:35;;;;;;;6.93;5.43;;;31.90;58.30;;;;;;4936958;29;20051;-75
2021/07/08 03:26:02;;;;;;;11.32;5.70;;;32.40;57.10;;;;;;4936892;29;20020;-75
2021/07/08 03:28:28;;;;;;;8.95;5.47;;;32.50;56.20;;;;;;4936745;29;20023;-75
2021/07/08 03:30:54;;;;;;;8.73;5.50;;;32.60;56.10;;;;;;4936612;29;20047;-75
2021/07/08 03:33:19;;;;;;;12.30;5.90;;;32.80;55.70;;;;;;4936784;29;20027;-75
2021/07/08 03:35:45;;;;;;;6.63;5.60;;;33.30;55.40;;;;;;4936470;29;20035;-74
2021/07/08 03:38:11;;;;;;;7.95;5.35;;;33.70;54.50;;;;;;4936593;29;20023;-73
2021/07/08 03:40:37;;;;;;;6.85;5.43;;;34.20;54.00;;;;;;4936522;29;20027;-74
2021/07/08 03:43:03;;;;;;;7.47;5.28;;;34.70;53.10;;;;;;4936439;29;20024;-74
2021/07/08 03:45:29;;;;;;;10.10;5.57;;;35.40;52.50;;;;;;4936503;29;20027;-75
2021/07/08 03:47:55;;;;;;;12.73;5.50;;;36.00;51.00;;;;;;4936472;29;20024;-75
2021/07/08 03:50:21;;;;;;;8.10;5.38;;;36.60;50.10;;;;;;4936352;29;20046;-74
2021/07/08 03:52:47;;;;;;;9.30;5.43;;;36.70;49.00;;;;;;4919215;29;20489;-74
2021/07/08 03:55:16;;;;;;;11.65;5.80;;;36.50;48.50;;;;;;4936110;29;20047;-74
2021/07/08 03:57:57;;;;;;;7.38;5.30;;;36.60;48.70;;;;;;4919047;29;20035;-75
2021/07/08 04:00:32;;;;;;;8.55;5.45;;;36.90;48.30;;;;;;4936137;29;20048;-75
2021/07/08 04:03:02;;;;;;;7.43;5.13;;;37.20;47.80;;;;;;4935968;29;20046;-75
2021/07/08 04:05:27;;;;;;;5.90;5.10;;;37.50;47.10;;;;;;4919069;29;20118;-75
2021/07/08 04:07:53;;;;;;;6.13;5.10;;;37.60;46.40;;;;;;4935887;29;20442;-74
2021/07/08 04:10:21;;;;;;;7.38;5.95;;;37.80;46.30;;;;;;4935974;29;20028;-75
2021/07/08 04:12:47;;;;;;;11.75;5.07;;;37.90;45.80;;;;;;4935592;29;20159;-75
2021/07/08 04:15:13;;;;;;;7.55;5.03;;;37.90;45.50;;;;;;4935014;29;20020;-75
2021/07/08 04:17:39;;;;;;;9.80;5.20;;;38.10;45.50;;;;;;4918334;29;20023;-75
2021/07/08 04:20:11;;;;;;;6.35;4.82;;;38.40;45.20;;;;;;4935603;29;20520;-75
2021/07/08 04:22:37;;;;;;;8.32;5.07;;;38.80;45.10;;;;;;4935043;29;20023;-75
2021/07/08 04:25:05;;;;;;;11.85;5.05;;;39.20;44.10;;;;;;4934689;29;20478;-75
2021/07/08 04:27:31;;;;;;;6.93;4.90;;;39.10;43.80;;;;;;4918007;29;20035;-75
2021/07/08 04:29:57;;;;;;;6.90;5.38;;;39.10;43.70;;;;;;4918174;29;20055;-75
2021/07/08 04:32:22;;;;;;;12.10;5.88;;;39.30;43.80;;;;;;4949826;29;20129;-75
2021/07/08 04:34:49;;;;;;;11.73;6.13;;;39.70;43.40;;;;;;4917923;29;20335;-75
2021/07/08 04:37:14;;;;;;;11.32;5.35;;;40.40;42.40;;;;;;4935257;29;20119;-75
2021/07/08 04:39:40;;;;;;;9.60;5.00;;;40.40;41.90;;;;;;4935222;29;20526;-74
2021/07/08 04:42:07;;;;;;;9.90;5.88;;;40.60;41.90;;;;;;4935065;29;20419;-75
2021/07/08 04:44:33;;;;;;;5.18;4.15;;;40.60;41.00;;;;;;4934988;29;20377;-75
2021/07/08 04:47:01;;;;;;;6.32;4.63;;;40.30;40.30;;;;;;4917742;29;20032;-75
2021/07/08 04:49:27;;;;;;;5.82;4.25;;;40.20;40.00;;;;;;4934915;29;20103;-75
2021/07/08 04:51:53;;;;;;;6.55;4.78;;;39.70;40.40;;;;;;4935053;29;20118;-75
2021/07/08 04:54:19;;;;;;;8.77;4.40;;;39.70;40.90;;;;;;4935180;29;20110;-75
2021/07/08 04:56:44;;;;;;;9.73;4.68;;;39.70;40.80;;;;;;4935137;29;20054;-76
2021/07/08 04:59:10;;;;;;;7.32;4.30;;;40.00;40.30;;;;;;4934452;29;20023;-74
2021/07/08 05:01:36;;;;;;;9.05;5.05;;;40.10;40.10;;;;;;4934707;29;20176;-74
2021/07/08 05:04:02;;;;;;;6.32;4.05;;;40.40;40.20;;;;;;4934523;29;20063;-75
2021/07/08 05:06:27;;;;;;;5.53;3.97;;;40.60;39.70;;;;;;4917385;29;20024;-75
2021/07/08 05:08:53;;;;;;;6.70;4.40;;;41.00;39.50;;;;;;4934555;29;20474;-74
2021/07/08 05:11:19;;;;;;;9.30;4.43;;;41.10;39.30;;;;;;4934573;29;20032;-76
2021/07/08 05:13:45;;;;;;;5.50;4.35;;;41.60;39.10;;;;;;4934452;29;20035;-74
2021/07/08 05:16:10;;;;;;;6.57;4.05;;;41.80;38.50;;;;;;4933922;29;20106;-75
2021/07/08 05:18:36;;;;;;;5.00;4.18;;;41.90;38.20;;;;;;4934714;29;20023;-75
2021/07/08 05:21:02;;;;;;;6.20;4.55;;;41.90;37.90;;;;;;4934113;29;20043;-75
2021/07/08 05:23:30;;;;;;;4.78;4.30;;;42.10;37.90;;;;;;4934297;29;20126;-75
2021/07/08 05:25:56;;;;;;;9.32;4.50;;;42.30;37.80;;;;;;4948850;28;20421;-76
2021/07/08 05:28:21;;;;;;;9.68;4.60;;;42.10;37.60;;;;;;4934015;29;20107;-76
2021/07/08 05:30:47;;;;;;;9.55;4.57;;;41.90;37.40;;;;;;4934232;29;20038;-75
2021/07/08 05:33:13;;;;;;;5.20;4.68;;;41.70;37.70;;;;;;4933828;29;20062;-76
2021/07/08 05:35:38;;;;;;;9.43;4.70;;;41.70;38.00;;;;;;4934022;29;20446;-75
2021/07/08 05:38:06;;;;;;;7.55;5.07;;;41.70;37.90;;;;;;4934106;29;20031;-76
2021/07/08 05:40:32;;;;;;;7.35;4.88;;;41.40;37.30;;;;;;4934114;29;20024;-76
2021/07/08 05:42:58;;;;;;;6.63;4.57;;;41.30;37.70;;;;;;4933708;29;20059;-75
2021/07/08 05:45:24;;;;;;;8.05;5.38;;;41.20;37.70;;;;;;4934096;29;20039;-76
2021/07/08 05:47:52;;;;;;;6.95;4.57;;;41.40;38.70;;;;;;4934029;29;20390;-77
2021/07/08 05:50:18;;;;;;;8.82;4.20;;;41.50;37.70;;;;;;4934302;29;20035;-79
2021/07/08 05:52:44;;;;;;;20.38;4.90;;;41.50;37.40;;;;;;4933724;29;20036;-78
2021/07/08 05:55:10;;;;;;;7.90;4.30;;;41.80;38.00;;;;;;4927163;29;20048;-78
2021/07/08 05:57:36;;;;;;;12.70;5.10;;;42.20;37.40;;;;;;4922568;29;20076;-79
2021/07/08 06:00:05;;;;;;;9.07;4.45;;;42.40;37.30;;;;;;4923191;29;20020;-78
2021/07/08 06:02:31;;;;;;;8.40;3.95;;;42.30;36.70;;;;;;4892462;29;20030;-78
2021/07/08 06:04:56;;;;;;;7.28;4.10;;;41.90;36.30;;;;;;4905497;29;20032;-77
2021/07/08 06:07:22;;;;;;;15.32;3.80;;;41.90;37.50;;;;;;4923070;29;20031;-77
2021/07/08 06:09:48;;;;;;;6.90;3.88;;;42.00;36.00;;;;;;4923681;29;20032;-77
2021/07/08 06:12:14;;;;;;;9.38;4.15;;;42.00;36.00;;;;;;4922011;29;20059;-77
2021/07/08 06:14:39;;;;;;;7.03;4.18;;;41.90;36.60;;;;;;4906141;29;20032;-78
2021/07/08 06:17:07;;;;;;;6.22;4.32;;;41.80;36.70;;;;;;4938170;29;20024;-79
2021/07/08 06:19:33;;;;;;;7.47;4.43;;;41.80;36.30;;;;;;4922330;29;20021;-79
2021/07/08 06:21:58;;;;;;;5.22;3.90;;;41.70;36.00;;;;;;4923824;29;20046;-79
2021/07/08 06:24:24;;;;;;;9.07;4.03;;;41.70;36.20;;;;;;4923425;29;20087;-77
2021/07/08 06:26:50;;;;;;;11.13;3.75;;;41.70;36.00;;;;;;4936081;29;20126;-77
2021/07/08 06:29:15;;;;;;;9.40;3.83;;;41.60;35.70;;;;;;4907339;29;20028;-78
2021/07/08 06:31:41;;;;;;;4.85;4.00;;;41.20;35.70;;;;;;4933576;29;20027;-78
2021/07/08 06:34:07;;;;;;;5.15;3.88;;;40.80;35.90;;;;;;4916383;29;20489;-77
2021/07/08 06:36:33;;;;;;;10.73;3.97;;;40.70;36.30;;;;;;4916352;29;20520;-77
2021/07/08 06:38:59;;;;;;;12.82;3.80;;;40.90;36.30;;;;;;4926528;29;20036;-80
2021/07/08 06:41:25;;;;;;;7.05;3.70;;;40.90;36.50;;;;;;4927193;29;20099;-80
2021/07/08 06:43:50;;;;;;;10.15;3.58;;;41.00;35.80;;;;;;4925425;29;20028;-78
2021/07/08 06:46:26;;;;;;;5.68;3.17;;;40.80;35.90;;;;;;4927270;29;20137;-78
2021/07/08 06:48:52;;;;;;;11.00;3.72;;;40.60;35.80;;;;;;4926971;29;20377;-78
2021/07/08 06:51:17;;;;;;;8.60;3.53;;;40.40;35.80;;;;;;4928259;29;20019;-79
2021/07/08 06:53:43;;;;;;;9.60;4.25;;;40.10;36.20;;;;;;4936454;29;20079;-79
2021/07/08 06:56:09;;;;;;;10.02;3.72;;;40.00;36.30;;;;;;4936759;29;20446;-80
2021/07/08 06:58:35;;;;;;;5.38;3.25;;;40.10;36.50;;;;;;4936877;29;20024;-78
2021/07/08 07:01:01;;;;;;;6.40;3.05;;;40.20;36.00;;;;;;4936740;29;20032;-78
2021/07/08 07:03:27;;;;;;;6.43;3.55;;;40.30;35.20;;;;;;4937006;29;20062;-79
2021/07/08 07:05:53;;;;;;;8.32;3.88;;;40.40;35.20;;;;;;4937100;29;20024;-78
2021/07/08 07:08:19;;;;;;;9.73;3.10;;;40.60;35.80;;;;;;4930710;29;20435;-77
2021/07/08 07:10:44;;;;;;;4.47;3.20;;;40.70;35.10;;;;;;4931517;29;20032;-79
2021/07/08 07:13:12;;;;;;;8.45;3.50;;;40.80;34.90;;;;;;4937087;29;20028;-79
2021/07/08 07:15:39;;;;;;;6.65;3.17;;;40.60;34.60;;;;;;4937201;29;20024;-80
2021/07/08 07:18:06;;;;;;;6.03;3.50;;;40.50;34.90;;;;;;4936644;29;20024;-78
2021/07/08 07:20:32;;;;;;;5.75;3.08;;;40.40;35.00;;;;;;4936744;29;20487;-78
2021/07/08 07:22:58;;;;;;;8.38;3.30;;;40.10;34.40;;;;;;4936961;29;20027;-79
2021/07/08 07:25:25;;;;;;;7.00;3.20;;;40.10;34.30;;;;;;4919465;29;20179;-78
2021/07/08 07:27:56;;;;;;;4.22;2.90;;;39.80;34.60;;;;;;4936641;29;20035;-80
2021/07/08 07:30:24;;;;;;;8.32;3.10;;;39.70;34.20;;;;;;4919353;29;20034;-77
2021/07/08 07:32:54;;;;;;;3.50;2.55;;;39.50;34.10;;;;;;4936989;29;20064;-78
2021/07/08 07:35:21;;;;;;;8.98;3.40;;;39.10;34.50;;;;;;4936399;29;20373;-78
2021/07/08 07:37:47;;;;;;;6.22;2.72;;;38.80;34.80;;;;;;4935968;29;20046;-77
2021/07/08 07:40:13;;;;;;;4.95;2.90;;;38.90;34.40;;;;;;4936154;29;20187;-77
2021/07/08 07:42:39;;;;;;;6.68;2.70;;;38.70;34.30;;;;;;4936094;29;20133;-77
2021/07/08 07:45:07;;;;;;;10.25;2.92;;;38.50;34.20;;;;;;4936440;29;20039;-78
2021/07/08 07:47:32;;;;;;;6.32;3.17;;;38.20;34.40;;;;;;4933776;29;20039;-77
2021/07/08 07:49:59;;;;;;;4.85;3.03;;;37.80;35.30;;;;;;4917403;29;20040;-77
2021/07/08 07:52:25;;;;;;;3.90;2.58;;;37.80;35.10;;;;;;4916909;29;20020;-76
2021/07/08 07:54:51;;;;;;;4.35;2.55;;;37.50;34.70;;;;;;4916861;29;20144;-78
2021/07/08 07:57:17;;;;;;;2.83;2.10;;;37.20;34.60;;;;;;4916997;29;20060;-77
2021/07/08 07:59:42;;;;;;;6.30;2.95;;;36.70;34.40;;;;;;4917252;29;20028;-79
2021/07/08 08:02:13;;;;;;;5.97;2.75;;;36.20;35.60;;;;;;4917259;29;20084;-77
2021/07/08 08:04:46;;;;;;;4.47;2.15;;;35.80;36.60;;;;;;4916975;29;20020;-77
2021/07/08 08:09:57;;;;;;;7.07;2.40;;;34.80;36.20;;;;;;4917062;29;20183;-79
2021/07/08 08:12:24;;;;;;;7.07;2.20;;;34.20;37.00;;;;;;4899468;29;20092;-78
2021/07/08 08:14:50;;;;;;;6.70;2.60;;;33.80;37.10;;;;;;4916279;29;20135;-79
2021/07/08 08:17:16;;;;;;;2.78;2.30;;;33.50;36.60;;;;;;4916397;29;20035;-77
2021/07/08 08:19:42;;;;;;;3.65;1.90;;;33.20;36.90;;;;;;4916356;29;20028;-76
2021/07/08 08:22:11;;;;;;;8.55;2.53;;;33.00;36.70;;;;;;4898979;29;20032;-77
2021/07/08 08:24:37;;;;;;;3.20;2.88;;;32.70;36.80;;;;;;4916492;29;20021;-79
2021/07/08 08:27:04;;;;;;;5.28;2.70;;;32.50;37.60;;;;;;4916455;29;20060;-78
2021/07/08 08:29:29;;;;;;;5.78;2.33;;;32.40;37.30;;;;;;4899154;29;20351;-78
2021/07/08 08:31:55;;;;;;;2.97;2.20;;;32.30;37.70;;;;;;4916447;29;20035;-79
2021/07/08 08:34:21;;;;;;;4.68;2.05;;;32.30;37.50;;;;;;4916449;29;20036;-78
2021/07/08 08:36:46;;;;;;;5.53;2.25;;;32.20;36.90;;;;;;4916652;29;20043;-79
2021/07/08 08:39:12;;;;;;;8.35;2.45;;;32.20;36.70;;;;;;4900006;29;20024;-79
2021/07/08 08:41:38;;;;;;;2.50;2.13;;;32.20;36.40;;;;;;4929098;29;20087;-80
2021/07/08 08:44:05;;;;;;;3.72;1.80;;;32.20;37.10;;;;;;4935242;29;20096;-78
2021/07/08 08:46:35;;;;;;;5.05;2.20;;;32.20;37.40;;;;;;4935188;29;20024;-78
2021/07/08 08:49:03;;;;;;;5.70;1.98;;;32.50;36.90;;;;;;4918460;29;20035;-79
2021/07/08 08:51:32;;;;;;;2.85;2.20;;;32.60;36.10;;;;;;4935738;29;20031;-80
2021/07/08 08:53:59;;;;;;;6.28;2.28;;;32.60;35.90;;;;;;4935287;29;20098;-80
2021/07/08 08:56:25;;;;;;;10.52;2.80;;;32.70;36.30;;;;;;4917770;29;20042;-79
2021/07/08 08:58:50;;;;;;;6.15;2.80;;;32.60;37.00;;;;;;4935207;29;20019;-80
2021/07/08 09:01:17;;;;;;;14.45;3.30;;;32.50;37.50;;;;;;4935751;29;20024;-80
2021/07/08 09:03:44;;;;;;;6.30;2.47;;;32.70;38.20;;;;;;4934825;29;20111;-80
2021/07/08 09:06:12;;;;;;;4.25;2.50;;;32.80;38.10;;;;;;4935019;29;20043;-79
2021/07/08 09:08:50;;;;;;;4.22;2.80;;;32.70;37.40;;;;;;4934871;29;20026;-79
2021/07/08 09:11:19;;;;;;;7.40;2.70;;;32.50;37.70;;;;;;4935772;29;20111;-77
2021/07/08 09:14:02;;;;;;;5.25;2.90;;;32.10;38.20;;;;;;4949133;28;20489;-79
2021/07/08 09:16:39;;;;;;;5.10;2.55;;;31.90;38.40;;;;;;4935131;29;20110;-79
2021/07/08 09:19:07;;;;;;;7.57;2.75;;;31.80;39.50;;;;;;4934906;29;20079;-79
2021/07/08 09:21:37;;;;;;;7.78;2.50;;;31.90;39.20;;;;;;4949013;29;20370;-79
2021/07/08 09:24:17;;;;;;;6.95;3.10;;;31.80;39.30;;;;;;4937019;29;20043;-82
2021/07/08 09:27:10;;;;;;;4.68;3.05;;;31.90;40.00;;;;;;4936839;29;20132;-81
2021/07/08 09:29:45;;;;;;;5.55;2.90;;;32.10;39.70;;;;;;4935674;29;20019;-82
2021/07/08 09:32:13;;;;;;;6.90;3.30;;;32.20;39.70;;;;;;4935968;29;20531;-82
2021/07/08 09:34:40;;;;;;;4.22;2.78;;;32.20;39.60;;;;;;4936242;29;20028;-80
2021/07/08 09:37:20;;;;;;;9.27;3.00;;;32.30;39.70;;;;;;4935804;29;20024;-80
2021/07/08 09:39:55;;;;;;;9.80;3.03;;;32.10;39.30;;;;;;4935905;29;20074;-81
2021/07/08 09:42:38;;;;;;;4.97;2.80;;;31.90;39.50;;;;;;4936193;29;20095;-81
2021/07/08 09:45:16;;;;;;;8.00;3.35;;;31.80;39.80;;;;;;4935793;29;20031;-80
2021/07/08 09:47:45;;;;;;;3.65;3.13;;;31.90;40.30;;;;;;4935774;29;20028;-81
2021/07/08 09:50:24;;;;;;;8.70;3.55;;;32.00;40.30;;;;;;4935875;29;20394;-80
2021/07/08 09:53:05;;;;;;;10.30;3.10;;;32.00;40.60;;;;;;4936080;29;20031;-81
2021/07/08 09:58:28;;;;;;;8.48;3.40;;;32.10;40.20;;;;;;4936078;29;20374;-82
2021/07/08 10:00:54;;;;;;;3.65;2.63;;;32.10;40.30;;;;;;4935452;29;20079;-83
2021/07/08 10:03:23;;;;;;;13.93;3.03;;;31.90;41.00;;;;;;4934732;29;20034;-81
2021/07/08 10:05:49;;;;;;;6.20;2.92;;;31.70;40.70;;;;;;4935357;29;20101;-82
2021/07/08 10:08:16;;;;;;;6.68;3.35;;;31.70;40.90;;;;;;4935684;29;20040;-81
2021/07/08 10:10:42;;;;;;;4.85;3.30;;;31.60;41.30;;;;;;4936080;29;20032;-81
2021/07/08 10:13:09;;;;;;;4.38;3.28;;;31.60;41.50;;;;;;4937576;29;20438;-81
2021/07/08 10:15:39;;;;;;;7.13;3.17;;;31.50;41.60;;;;;;4938808;29;20079;-81
2021/07/08 10:18:06;;;;;;;8.60;3.55;;;31.40;41.80;;;;;;4922107;29;20027;-83
2021/07/08 10:20:32;;;;;;;5.88;2.55;;;31.60;42.20;;;;;;4939576;29;20027;-77
2021/07/08 10:22:59;;;;;;;8.43;2.63;;;31.60;41.40;;;;;;4938656;29;20075;-81
2021/07/08 10:25:24;;;;;;;8.23;4.25;;;31.40;41.20;;;;;;4938895;29;20034;-80
2021/07/08 10:27:54;;;;;;;9.38;3.67;;;31.30;41.50;;;;;;4938852;29;20103;-80
2021/07/08 10:30:24;;;;;;;12.13;8.38;;;31.40;41.90;;;;;;4938305;29;20028;-82
2021/07/08 10:33:02;;;;;;;7.85;3.17;;;31.50;42.00;;;;;;4938294;29;20052;-82
2021/07/08 10:35:44;;;;;;;8.00;3.08;;;31.60;41.50;;;;;;4952556;29;20055;-81
2021/07/08 10:38:29;;;;;;;10.07;2.83;;;31.60;41.20;;;;;;4920873;29;20117;-82
2021/07/08 10:40:56;;;;;;;3.95;2.35;;;31.40;40.90;;;;;;4937767;29;20020;-82
2021/07/08 10:43:48;;;;;;;5.85;2.72;;;31.20;40.90;;;;;;4937775;29;20050;-82
2021/07/08 10:46:17;;;;;;;4.93;3.03;;;31.10;41.10;;;;;;4934153;29;20155;-84
2021/07/08 10:48:47;;;;;;;4.55;3.03;;;31.00;41.30;;;;;;4938234;29;20043;-81
2021/07/08 10:51:43;;;;;;;6.47;2.70;;;31.00;41.60;;;;;;4938457;29;20027;-81
2021/07/08 10:54:28;;;;;;;5.15;2.47;;;31.00;42.30;;;;;;4937078;29;20058;-83
2021/07/08 10:56:56;;;;;;;5.68;3.13;;;31.10;41.90;;;;;;4938714;29;20882;-82
2021/07/08 10:59:22;;;;;;;4.05;2.70;;;31.00;41.80;;;;;;4938247;29;20024;-79
2021/07/08 11:01:51;;;;;;;4.65;3.10;;;31.00;41.90;;;;;;4920729;29;20692;-74
2021/07/08 11:04:50;;;;;;;5.70;2.42;;;31.00;42.00;;;;;;4939371;29;20048;-77
2021/07/08 11:07:22;;;;;;;5.88;2.88;;;30.80;42.30;;;;;;4920467;29;20115;-80
2021/07/08 11:09:54;;;;;;;4.80;2.70;;;30.70;42.00;;;;;;4936940;29;20028;-79
2021/07/08 11:12:31;;;;;;;5.82;2.42;;;30.70;42.60;;;;;;4936709;29;20046;-81
2021/07/08 11:14:57;;;;;;;5.05;3.15;;;30.80;42.40;;;;;;4938174;29;20361;-80
2021/07/08 11:17:23;;;;;;;6.70;3.15;;;30.80;42.10;;;;;;4936486;29;20100;-81
2021/07/08 11:19:50;;;;;;;6.25;2.97;;;30.70;42.30;;;;;;4936771;29;20463;-82
2021/07/08 11:22:22;;;;;;;15.63;8.32;;;30.80;42.60;;;;;;4936215;29;20048;-78
2021/07/08 11:24:51;;;;;;;;;;;30.90;42.70;;;;;;4940682;29;20040;-75
2021/07/08 11:27:31;;;;;;;5.03;2.38;;;30.90;42.30;;;;;;4935708;29;19907;-76
2021/07/08 11:30:05;;;;;;;8.82;2.92;;;30.80;42.10;;;;;;4918563;29;20051;-77
2021/07/08 11:32:46;;;;;;;6.32;2.50;;;30.70;42.60;;;;;;4950194;29;20403;-77
2021/07/08 11:35:21;;;;;;;;;;;30.80;42.70;;;;;;4936036;29;20028;-76
2021/07/08 11:38:29;;;;;;;4.15;2.70;;;30.80;42.60;;;;;;4935547;29;19989;-77
2021/07/08 11:40:55;;;;;;;4.30;2.22;;;30.80;42.50;;;;;;4935545;29;20492;-76
2021/07/08 11:43:37;;;;;;;7.35;2.85;;;30.70;42.30;;;;;;4918316;29;20028;-76
2021/07/08 11:46:11;;;;;;;7.50;2.67;;;30.70;42.70;;;;;;4935699;29;20020;-76
2021/07/08 11:48:42;;;;;;;8.00;2.45;;;30.60;42.60;;;;;;4935552;29;20038;-76
2021/07/08 11:51:32;;;;;;;9.40;2.70;;;30.60;42.80;;;;;;4935607;29;20040;-76
2021/07/08 11:53:59;;;;;;;10.45;2.72;;;30.60;43.30;;;;;;4935578;29;20147;-76
2021/07/08 11:56:25;;;;;;;5.18;2.65;;;30.60;43.10;;;;;;4935516;29;20135;-77
2021/07/08 11:58:51;;;;;;;11.75;2.72;;;30.60;43.30;;;;;;4935795;29;20143;-76
2021/07/08 12:01:19;;;;;;;6.82;2.80;;;30.60;43.20;;;;;;4935404;29;20090;-76
2021/07/08 12:03:54;;;;;;;4.22;2.50;;;30.60;43.40;;;;;;4935359;29;20035;-77
2021/07/08 12:06:23;;;;;;;19.75;4.32;;;30.60;43.20;;;;;;4934969;29;20035;-76
2021/07/08 12:08:51;;;;;;;10.43;2.80;;;30.60;42.80;;;;;;4935296;29;20070;-76
2021/07/08 12:11:30;;;;;;;4.80;2.63;;;30.50;43.30;;;;;;4934770;29;20027;-77
2021/07/08 12:13:59;;;;;;;5.15;3.10;;;30.50;43.10;;;;;;4934893;29;20114;-74
2021/07/08 12:16:47;;;;;;;5.57;2.50;;;30.50;43.30;;;;;;4935123;29;20051;-76
2021/07/08 12:19:22;;;;;;;7.25;3.08;;;30.50;43.70;;;;;;4924115;29;20050;-76
2021/07/08 12:21:49;;;;;;;9.82;2.90;;;30.50;43.40;;;;;;4934505;29;20023;-76
2021/07/08 12:24:25;;;;;;;4.32;2.70;;;30.60;43.50;;;;;;4934769;29;20027;-78
2021/07/08 12:26:53;;;;;;;6.03;2.78;;;30.50;43.30;;;;;;4935043;29;20681;-76
2021/07/08 12:29:38;;;;;;;9.65;2.70;;;30.40;43.30;;;;;;4934676;29;20051;-75
2021/07/08 12:32:09;;;;;;;11.68;3.08;;;30.30;43.50;;;;;;4934509;29;20024;-78
2021/07/08 12:34:46;;;;;;;9.27;2.72;;;30.30;43.80;;;;;;4933882;29;20149;-76
2021/07/08 12:37:19;;;;;;;3.55;2.85;;;30.30;43.40;;;;;;4934353;29;20486;-76
2021/07/08 12:39:47;;;;;;;4.13;2.92;;;30.30;43.60;;;;;;4934087;29;20462;-76
2021/07/08 12:42:17;;;;;;;14.85;3.47;;;30.30;43.90;;;;;;4934407;29;20023;-79
2021/07/08 12:44:44;;;;;;;4.43;2.35;;;30.30;44.30;;;;;;4934107;29;20316;-77
2021/07/08 12:47:10;;;;;;;7.43;2.83;;;30.30;43.90;;;;;;4934650;29;20032;-76
2021/07/08 12:49:37;;;;;;;4.32;2.53;;;30.30;43.70;;;;;;4935175;29;20019;-76
2021/07/08 12:52:03;;;;;;;3.63;2.40;;;30.20;43.40;;;;;;4934233;29;20074;-77
2021/07/08 12:54:29;;;;;;;7.15;2.65;;;30.10;43.50;;;;;;4933918;29;20048;-77
2021/07/08 12:57:07;;;;;;;4.30;2.47;;;30.10;44.00;;;;;;4934172;29;20032;-77